sim
Sign-in with your pilot id or email,
or register
Callsign
Passwort

Schedule Details

Flight Number: DLH2083
Departure: Hamburg Airport (EDDH) at 05:20
Arrival: Munich Airport (EDDM) at 06:35
Route: Lufthansa Passenger Schedule. Enter filed route here before submitting Pirep.

Weather Information
Getting current METAR information for EDDH 271050Z VRB02KT 9999 -RA FEW008 BKN012 BKN043 12/09 Q1003 TEMPO BKN045
Getting current METAR information for EDDM 271050Z 20006KT 130V270 9999 FEW043 13/03 Q1006 NOSIG

Schedule Frequency

Route Map